Sebastiano Galli

Chief Scout - Arezzo
24 Sep 2028
Sunday
Process

Personality

Adaptability (1) Ambition (17) Controversy (19) Loyalty (18) Pressure (2) Professionalism (3) Sportsmanship (17) Temperament (4)

Profile

Coaching Style Democratic
License National A
Determination 9
Man Management 9
Motivating 3
Discipline 9
Job Satisfaction
100%
Fatigue
0%
Role Chief Scout
Wage 31.8K p/w
Contract 14.03.2030

Performance

Behaviour Good
Training Effectiveness
40%
Player Development
15%
Injury Prevention
35%
Tactical Implementation
40%

Recent Events

Attended a recruitment meeting 7d ago
Attended a recruitment meeting 7d ago
Attended a recruitment meeting 14d ago
Attended a recruitment meeting 14d ago
Attended a recruitment meeting 21d ago
Attended a recruitment meeting 21d ago
Attended a recruitment meeting 28d ago
Attended a recruitment meeting 35d ago

Currently Monitoring

102
Player Club Status Ability Confidence Watched Last Observed Latest Vote
Leonardo Baroncelli Gubbio Lost 102 / 91 55% 1 31.07.2028 -
Matteo Rizzo Cosenza Active 114 / 110 40% 3 30.12.2026 -
Gregory Sekyere Aduana Stars Active 91 / 99 40% 1 30.12.2026 -
Luca Lombardi Pineto Active 103 / 98 40% 1 29.12.2026 -
Nicola Pietrangeli Juve Stabia Active 124 / 120 40% 3 27.12.2026 -
Patrik Demjén MTK Budapest Active 92 / 120 40% 2 27.12.2026 -
Edmund Afful Hasaacas Active 83 / 96 40% 1 27.12.2026 -
Moha Karpaty Active 126 / 126 40% 1 27.12.2026 -
Matteo Lovato Padova Active 125 / 134 40% 1 26.12.2026 -
Williams Mabunda Ajax Cape Town Active 100 / 129 40% 3 24.12.2026 -
Maksym Kovaliov Spartak 1918 Active 84 / 93 40% 3 24.12.2026 -
Luca Gemello Perugia Active 97 / 102 40% 1 23.12.2026 -
David Sangaré Ryazan Active 103 / 98 40% 2 20.12.2026 -
Vadim Averkiev Orel Active 66 / 79 40% 1 20.12.2026 -
Luca Martelli Forli Active 99 / 94 40% 1 19.12.2026 -
Francesco D'Alterio Ternana Active 109 / 115 40% 1 18.12.2026 Needs More Info
Aleksander Łubik Tarxien Rainbows Active 64 / 72 40% 1 18.12.2026 -
Bogdan Ovsyannikov Orenburg Active 95 / 97 40% 3 17.12.2026 -
Anton Zhylkin Karpaty Active 95 / 112 40% 1 15.12.2026 -
Andrei Vlad Petrolul Active 113 / 117 40% 1 14.12.2026 -
Felix Kyei Medeama Active 110 / 105 40% 1 14.12.2026 -
Adam Jakubech MFK Michalovce Active 91 / 113 40% 1 13.12.2026 -
Fernando Hernández Bekescsaba Active 81 / 97 40% 1 12.12.2026 -
Arthur Beroe Active 123 / 107 40% 1 10.12.2026 -
Andrii Kozhukhar Veres Active 86 / 111 40% 2 09.12.2026 -
Martin Vantruba Spartak Trnava Active 110 / 102 40% 1 09.12.2026 -
Ludovico Del Sorbo Sorrento Active 98 / 105 40% 1 08.12.2026 -
Mikhail Gaidash Spartak Kostroma Active 80 / 95 40% 1 08.12.2026 -
William Rovida Pro Patria Active 105 / 105 40% 1 07.12.2026 -
Itumeleng Grobler Free State Stars Active 105 / 113 40% 2 05.12.2026 -
Sipho Chaine Orlando Pirates Active 109 / 106 40% 2 05.12.2026 -
James Eto'o CSKA Sofia Active 135 / 129 40% 1 05.12.2026 -
Marco Pompetti Padova Active 140 / 121 40% 1 04.12.2026 -
Samuele Birindelli Monza Active 138 / 116 40% 1 04.12.2026 -
Brian Bwire Polokwane City Active 89 / 100 40% 1 03.12.2026 -
Marco Imperiale Catanzaro Active 133 / 128 40% 1 02.12.2026 -
Federico Gattoni Ascoli Active 121 / 124 40% 1 01.12.2026 -
Gonzalo Gamarra Floriana Active 107 / 107 40% 1 01.12.2026 -
Goodman Mosele Chippa United Active 87 / 99 40% 1 30.11.2026 -
Andrea Meroni Mantova Active 130 / 131 40% 1 30.11.2026 -
Johnly Yfeko Exeter City Active 104 / 119 40% 1 29.11.2026 -
Niccolò Pierozzi Palermo Active 112 / 125 40% 1 29.11.2026 -
Baldovino Cimino Cosenza Active 100 / 115 40% 2 28.11.2026 -
Davide Barosi Campobasso Active 105 / 108 40% 2 26.11.2026 -
Dean Campbell Northampton Town Active 114 / 99 40% 1 25.11.2026 -
Valerio Boffelli Cavese Active 97 / 104 40% 2 24.11.2026 -
Richard Ludha MFK Skalica Active 100 / 100 40% 2 24.11.2026 -
Mehdi Dorval Catanzaro Active 124 / 124 40% 1 23.11.2026 -
Antoine Hainaut Venezia Active 133 / 125 40% 1 23.11.2026 -
Timur Akmurzin Dinamo Bryansk Active 92 / 106 40% 1 21.11.2026 -
Oufa Shobeir MC Alger Active 128 / 133 40% 1 21.11.2026 -
Heorhii Yermakov Metalist Active 122 / 103 40% 1 19.11.2026 -
Ivan Lomaev Ufa Active 96 / 103 40% 1 19.11.2026 -
Sergio Barlocco Trento Active 115 / 116 40% 2 17.11.2026 -
Mate Modric Zadar Active 123 / 93 40% 1 17.11.2026 -
Gianluca Saro Foggia Lost 114 / 113 40% 3 14.11.2026 Monitor
Cesare Galeotti Trapani Active 98 / 108 40% 1 13.11.2026 -
Kristjan Matošević Triestina Active 112 / 100 40% 1 09.11.2026 -
Jan Bačkovský Dukla Prague Active 89 / 97 40% 1 09.11.2026 -
Arne Maier Ujpest Active 101 / 107 40% 1 09.11.2026 -
Martin Trnovský Podbrezova Active 109 / 101 40% 1 05.11.2026 -
Filip Marschall Stevenage Active 117 / 103 40% 2 04.11.2026 -
Mustapha Lawal Shooting Stars Active 84 / 98 40% 1 04.11.2026 -
Alessandro Farroni Siracusa Active 99 / 87 40% 1 02.11.2026 -
Ifeanyi Emmanuel Niger Tornadoes Active 110 / 83 40% 1 31.10.2026 -
Lukas Gütlbauer Wolfsberger AC Active 124 / 125 40% 2 28.10.2026 -
János Uram Vasas Active 83 / 105 40% 1 28.10.2026 -
Pontus Dahlberg Lillestrom Active 125 / 116 40% 1 27.10.2026 -
Thomas Carrique Andorra Active 116 / 109 40% 1 25.10.2026 -
Sandi Zajc NK Domzale Active 89 / 107 40% 1 25.10.2026 -
Agustín Buffa Wanderers Active 94 / 100 40% 1 25.10.2026 -
Samuele Perisan Reggiana Active 122 / 99 40% 2 24.10.2026 -
Riccardo Gagno Vicenza Active 115 / 127 40% 1 24.10.2026 -
Alex Bass Peterborough United Active 114 / 101 40% 1 22.10.2026 -
Nemanja Tekijaški Jablonec Active 103 / 116 40% 1 22.10.2026 -
Achraf el Bouchataoui Pro Vercelli Active 117 / 109 40% 1 22.10.2026 -
Liam Kitching Coventry City Active 117 / 115 40% 1 21.10.2026 -
Leonardo Benedetti Virtus Entella Active 104 / 110 40% 1 20.10.2026 -
Renato Solís Sporting Cristal Active 118 / 123 40% 1 17.10.2026 -
Michele Collocolo Cremonese Active 128 / 133 40% 1 16.10.2026 -
Kane Wilson Milton Keynes Dons Active 115 / 117 40% 1 13.10.2026 -
Facundo Miño Deportivo Riestra Active 120 / 128 40% 1 13.10.2026 -
Matouš Trmal Teplice Active 108 / 112 40% 1 11.10.2026 -
Francisco Salerno Defensores Unidos Active 119 / 103 40% 1 09.10.2026 -
Mauro Casoli Talleres Active 95 / 106 40% 2 07.10.2026 -
Daniele Sommariva Gillingham Active 98 / 96 40% 1 06.10.2026 -
Massimiliano Mangraviti Cesena Active 128 / 113 40% 1 05.10.2026 -
James Herrera La Equidad Active 132 / 122 40% 1 05.10.2026 -
Simone Ghidotti Parma Active 134 / 123 40% 1 01.10.2026 -
Juan Moreno La Luz Active 106 / 113 40% 1 24.09.2026 -
Anthony Patterson Wrexham Active 126 / 132 40% 1 17.09.2026 -
Gonzalo Falcón Cienciano Active 123 / 111 40% 2 16.09.2026 -
Melker Ellborg Sunderland Active 102 / 110 40% 1 16.09.2026 -
Josep Martínez Inter Active 135 / 138 40% 1 14.09.2026 -
Moisés Gallo Aragua Active 85 / 107 40% 1 12.09.2026 -
Abuchi Okeke Kano Pillars Active 110 / 105 40% 1 12.09.2026 -
Fran Vieites Walsall Active 122 / 121 40% 1 07.09.2026 -
Lautaro Petruchi Gimnasia y Esgrima Active 104 / 111 40% 1 07.09.2026 -
Sindre Walle Egeli Udinese Active 114 / 132 40% 1 25.08.2026 -
Alejandro Piedrahita Deportivo Pereira Active 129 / 117 40% 1 24.08.2026 -
Mauricio Asenjo Los Andes Active 130 / 113 40% 1 03.08.2026 -
Alfio Oviedo Tigre Active 120 / 121 40% 1 03.08.2026 -